sensor_id;sensor_type;location;lat;lon;timestamp;pressure;altitude;pressure_sealevel;temperature;humidity
10093;BME280;5085;48.092;11.484;2023-01-29T00:01:47;96034.59;;;0.08;100.00
10093;BME280;5085;48.092;11.484;2023-01-29T00:04:13;96025.84;;;0.08;100.00
10093;BME280;5085;48.092;11.484;2023-01-29T00:06:39;96029.50;;;0.07;100.00
10093;BME280;5085;48.092;11.484;2023-01-29T00:09:05;96027.22;;;0.04;100.00
10093;BME280;5085;48.092;11.484;2023-01-29T00:11:31;96025.56;;;0.03;100.00
10093;BME280;5085;48.092;11.484;2023-01-29T00:13:57;96022.94;;;0.03;100.00
10093;BME280;5085;48.092;11.484;2023-01-29T00:16:23;96022.94;;;0.03;100.00
10093;BME280;5085;48.092;11.484;2023-01-29T00:18:49;96024.41;;;0.05;100.00
10093;BME280;5085;48.092;11.484;2023-01-29T00:21:17;96021.91;;;0.04;100.00
10093;BME280;5085;48.092;11.484;2023-01-29T00:23:44;96034.16;;;0.05;100.00
10093;BME280;5085;48.092;11.484;2023-01-29T00:26:10;96034.34;;;0.03;100.00
10093;BME280;5085;48.092;11.484;2023-01-29T00:28:40;96032.13;;;0.07;100.00
10093;BME280;5085;48.092;11.484;2023-01-29T00:31:11;96038.44;;;0.06;100.00
10093;BME280;5085;48.092;11.484;2023-01-29T00:33:38;96045.75;;;0.04;100.00
10093;BME280;5085;48.092;11.484;2023-01-29T00:36:05;96039.81;;;0.02;100.00
10093;BME280;5085;48.092;11.484;2023-01-29T00:38:33;96041.00;;;-0.01;100.00
10093;BME280;5085;48.092;11.484;2023-01-29T00:41:06;96041.81;;;-0.01;100.00
10093;BME280;5085;48.092;11.484;2023-01-29T00:43:51;96039.13;;;-0.07;100.00
10093;BME280;5085;48.092;11.484;2023-01-29T00:46:35;96042.94;;;-0.10;100.00
10093;BME280;5085;48.092;11.484;2023-01-29T00:49:02;96043.31;;;-0.13;100.00
10093;BME280;5085;48.092;11.484;2023-01-29T00:51:29;96042.44;;;-0.20;100.00
10093;BME280;5085;48.092;11.484;2023-01-29T00:53:55;96042.97;;;-0.24;100.00
10093;BME280;5085;48.092;11.484;2023-01-29T00:56:27;96034.59;;;-0.28;100.00
10093;BME280;5085;48.092;11.484;2023-01-29T00:58:54;96038.78;;;-0.34;100.00
10093;BME280;5085;48.092;11.484;2023-01-29T01:01:21;96038.97;;;-0.35;100.00
10093;BME280;5085;48.092;11.484;2023-01-29T01:04:09;96041.97;;;-0.38;100.00
10093;BME280;5085;48.092;11.484;2023-01-29T01:06:42;96049.09;;;-0.39;100.00
10093;BME280;5085;48.092;11.484;2023-01-29T01:09:09;96047.91;;;-0.36;100.00
10093;BME280;5085;48.092;11.484;2023-01-29T01:11:54;96035.31;;;-0.34;100.00
10093;BME280;5085;48.092;11.484;2023-01-29T01:14:20;96036.78;;;-0.32;100.00
10093;BME280;5085;48.092;11.484;2023-01-29T01:16:47;96037.13;;;-0.35;100.00
10093;BME280;5085;48.092;11.484;2023-01-29T01:19:14;96046.53;;;-0.32;100.00
10093;BME280;5085;48.092;11.484;2023-01-29T01:21:41;96041.88;;;-0.30;100.00
10093;BME280;5085;48.092;11.484;2023-01-29T01:24:11;96049.19;;;-0.32;100.00
10093;BME280;5085;48.092;11.484;2023-01-29T01:26:38;96049.75;;;-0.37;100.00
10093;BME280;5085;48.092;11.484;2023-01-29T01:29:04;96049.75;;;-0.37;100.00
10093;BME280;5085;48.092;11.484;2023-01-29T01:31:30;96047.91;;;-0.36;100.00
10093;BME280;5085;48.092;11.484;2023-01-29T01:33:56;96044.91;;;-0.33;100.00
10093;BME280;5085;48.092;11.484;2023-01-29T01:36:22;96050.19;;;-0.33;100.00
10093;BME280;5085;48.092;11.484;2023-01-29T01:38:48;96048.81;;;-0.29;100.00
10093;BME280;5085;48.092;11.484;2023-01-29T01:41:17;96048.16;;;-0.31;100.00
10093;BME280;5085;48.092;11.484;2023-01-29T01:43:55;96060.03;;;-0.27;100.00
10093;BME280;5085;48.092;11.484;2023-01-29T01:46:29;96052.09;;;-0.27;100.00
10093;BME280;5085;48.092;11.484;2023-01-29T01:51:32;96048.72;;;-0.21;100.00
10093;BME280;5085;48.092;11.484;2023-01-29T01:54:06;96042.78;;;-0.23;100.00
10093;BME280;5085;48.092;11.484;2023-01-29T01:56:38;96043.78;;;-0.24;100.00
10093;BME280;5085;48.092;11.484;2023-01-29T01:59:11;96045.44;;;-0.23;100.00
10093;BME280;5085;48.092;11.484;2023-01-29T02:01:38;96050.25;;;-0.27;100.00
10093;BME280;5085;48.092;11.484;2023-01-29T02:04:09;96049.81;;;-0.30;100.00
10093;BME280;5085;48.092;11.484;2023-01-29T02:06:57;96048.53;;;-0.34;100.00
10093;BME280;5085;48.092;11.484;2023-01-29T02:09:49;96055.84;;;-0.36;100.00
10093;BME280;5085;48.092;11.484;2023-01-29T02:12:17;96053.75;;;-0.41;100.00
10093;BME280;5085;48.092;11.484;2023-01-29T02:14:45;96060.88;;;-0.41;100.00
10093;BME280;5085;48.092;11.484;2023-01-29T02:17:13;96056.94;;;-0.45;100.00
10093;BME280;5085;48.092;11.484;2023-01-29T02:25:11;96065.59;;;-0.37;100.00
10093;BME280;5085;48.092;11.484;2023-01-29T02:30:43;96063.69;;;-0.28;100.00
10093;BME280;5085;48.092;11.484;2023-01-29T02:33:45;96063.34;;;-0.25;100.00
10093;BME280;5085;48.092;11.484;2023-01-29T02:42:20;96045.63;;;-0.24;100.00
10093;BME280;5085;48.092;11.484;2023-01-29T02:45:31;96038.88;;;-0.27;100.00
10093;BME280;5085;48.092;11.484;2023-01-29T02:47:59;96043.34;;;-0.28;100.00
10093;BME280;5085;48.092;11.484;2023-01-29T02:53:25;96024.63;;;-0.26;100.00
10093;BME280;5085;48.092;11.484;2023-01-29T02:55:59;96034.84;;;-0.23;100.00
10093;BME280;5085;48.092;11.484;2023-01-29T02:58:42;96033.66;;;-0.20;100.00
10093;BME280;5085;48.092;11.484;2023-01-29T03:01:29;96027.72;;;-0.22;100.00
10093;BME280;5085;48.092;11.484;2023-01-29T03:04:00;96027.91;;;-0.24;100.00
10093;BME280;5085;48.092;11.484;2023-01-29T03:06:38;96035.66;;;-0.22;100.00
10093;BME280;5085;48.092;11.484;2023-01-29T03:09:10;96032.19;;;-0.23;100.00
10093;BME280;5085;48.092;11.484;2023-01-29T03:11:41;96026.09;;;-0.23;100.00
10093;BME280;5085;48.092;11.484;2023-01-29T03:14:15;96028.53;;;-0.22;100.00
10093;BME280;5085;48.092;11.484;2023-01-29T03:16:47;96036.47;;;-0.22;100.00
10093;BME280;5085;48.092;11.484;2023-01-29T03:19:20;96033.00;;;-0.22;100.00
10093;BME280;5085;48.092;11.484;2023-01-29T03:21:52;96039.94;;;-0.21;100.00
10093;BME280;5085;48.092;11.484;2023-01-29T03:24:44;96034.47;;;-0.20;100.00
10093;BME280;5085;48.092;11.484;2023-01-29T03:27:37;96040.78;;;-0.21;100.00
10093;BME280;5085;48.092;11.484;2023-01-29T03:30:24;96038.97;;;-0.20;100.00
10093;BME280;5085;48.092;11.484;2023-01-29T03:33:25;96040.34;;;-0.24;100.00
10093;BME280;5085;48.092;11.484;2023-01-29T03:36:17;96039.69;;;-0.27;100.00
10093;BME280;5085;48.092;11.484;2023-01-29T03:38:44;96053.72;;;-0.26;100.00
10093;BME280;5085;48.092;11.484;2023-01-29T03:42:03;96045.78;;;-0.26;100.00
10093;BME280;5085;48.092;11.484;2023-01-29T03:44:37;96052.09;;;-0.27;100.00
10093;BME280;5085;48.092;11.484;2023-01-29T03:47:45;96043.69;;;-0.31;100.00
10093;BME280;5085;48.092;11.484;2023-01-29T03:50:37;96042.44;;;-0.35;100.00
10093;BME280;5085;48.092;11.484;2023-01-29T03:53:17;96030.41;;;-0.37;100.00
10093;BME280;5085;48.092;11.484;2023-01-29T03:58:44;96029.38;;;-0.36;100.00
10093;BME280;5085;48.092;11.484;2023-01-29T04:01:18;96025.72;;;-0.35;100.00
10093;BME280;5085;48.092;11.484;2023-01-29T04:03:52;96020.09;;;-0.32;100.00
10093;BME280;5085;48.092;11.484;2023-01-29T04:06:26;96008.69;;;-0.33;100.00
10093;BME280;5085;48.092;11.484;2023-01-29T04:09:06;96009.50;;;-0.32;100.00
10093;BME280;5085;48.092;11.484;2023-01-29T04:11:38;96005.38;;;-0.35;100.00
10093;BME280;5085;48.092;11.484;2023-01-29T04:14:08;95998.47;;;-0.36;100.00
10093;BME280;5085;48.092;11.484;2023-01-29T04:16:37;96004.56;;;-0.35;100.00
10093;BME280;5085;48.092;11.484;2023-01-29T04:19:24;96001.91;;;-0.35;100.00
10093;BME280;5085;48.092;11.484;2023-01-29T04:22:01;96001.75;;;-0.34;100.00
10093;BME280;5085;48.092;11.484;2023-01-29T04:24:28;96012.97;;;-0.32;100.00
10093;BME280;5085;48.092;11.484;2023-01-29T04:27:04;96015.41;;;-0.30;100.00
10093;BME280;5085;48.092;11.484;2023-01-29T04:46:38;96017.88;;;-0.29;100.00
10093;BME280;5085;48.092;11.484;2023-01-29T04:51:57;96018.34;;;-0.25;100.00
10093;BME280;5085;48.092;11.484;2023-01-29T04:57:18;96011.22;;;-0.24;100.00
10093;BME280;5085;48.092;11.484;2023-01-29T04:59:54;96012.22;;;-0.26;100.00
10093;BME280;5085;48.092;11.484;2023-01-29T05:02:23;96013.22;;;-0.27;100.00
10093;BME280;5085;48.092;11.484;2023-01-29T05:04:51;96015.88;;;-0.27;100.00
10093;BME280;5085;48.092;11.484;2023-01-29T05:07:19;96006.66;;;-0.31;100.00
10093;BME280;5085;48.092;11.484;2023-01-29T05:09:47;96012.69;;;-0.37;100.00
10093;BME280;5085;48.092;11.484;2023-01-29T05:12:14;96014.06;;;-0.41;100.00
10093;BME280;5085;48.092;11.484;2023-01-29T05:14:43;96023.63;;;-0.40;100.00
10093;BME280;5085;48.092;11.484;2023-01-29T05:17:15;96025.09;;;-0.37;100.00
10093;BME280;5085;48.092;11.484;2023-01-29T05:19:42;96027.56;;;-0.36;100.00
10093;BME280;5085;48.092;11.484;2023-01-29T05:22:10;96025.72;;;-0.35;100.00
10093;BME280;5085;48.092;11.484;2023-01-29T05:24:37;96029.38;;;-0.36;100.00
10093;BME280;5085;48.092;11.484;2023-01-29T05:27:03;96035.50;;;-0.36;100.00
10093;BME280;5085;48.092;11.484;2023-01-29T05:29:47;96034.69;;;-0.36;100.00
10093;BME280;5085;48.092;11.484;2023-01-29T05:32:14;96047.91;;;-0.36;100.00
10093;BME280;5085;48.092;11.484;2023-01-29T05:34:40;96050.09;;;-0.40;100.00
10093;BME280;5085;48.092;11.484;2023-01-29T05:37:08;96055.38;;;-0.40;100.00
10093;BME280;5085;48.092;11.484;2023-01-29T05:39:34;96051.31;;;-0.42;100.00
10093;BME280;5085;48.092;11.484;2023-01-29T05:42:00;96049.63;;;-0.43;100.00
10093;BME280;5085;48.092;11.484;2023-01-29T05:44:26;96059.41;;;-0.44;100.00
10093;BME280;5085;48.092;11.484;2023-01-29T05:46:52;96060.88;;;-0.41;100.00
10093;BME280;5085;48.092;11.484;2023-01-29T05:49:18;96062.31;;;-0.39;100.00
10093;BME280;5085;48.092;11.484;2023-01-29T05:51:45;96059.31;;;-0.36;100.00
10093;BME280;5085;48.092;11.484;2023-01-29T05:54:12;96066.22;;;-0.35;100.00
10093;BME280;5085;48.092;11.484;2023-01-29T05:56:38;96064.69;;;-0.29;100.00
10093;BME280;5085;48.092;11.484;2023-01-29T05:59:05;96064.50;;;-0.28;100.00
10093;BME280;5085;48.092;11.484;2023-01-29T06:01:32;96055.56;;;-0.27;100.00
10093;BME280;5085;48.092;11.484;2023-01-29T06:03:58;96051.06;;;-0.26;100.00
10093;BME280;5085;48.092;11.484;2023-01-29T06:06:24;96049.25;;;-0.26;100.00
10093;BME280;5085;48.092;11.484;2023-01-29T06:08:50;96058.84;;;-0.24;100.00
10093;BME280;5085;48.092;11.484;2023-01-29T06:11:16;96058.84;;;-0.24;100.00
10093;BME280;5085;48.092;11.484;2023-01-29T06:13:43;96060.84;;;-0.27;100.00
10093;BME280;5085;48.092;11.484;2023-01-29T06:16:12;96057.19;;;-0.26;100.00
10093;BME280;5085;48.092;11.484;2023-01-29T06:18:39;96047.47;;;-0.25;100.00
10093;BME280;5085;48.092;11.484;2023-01-29T06:21:09;96056.22;;;-0.24;100.00
10093;BME280;5085;48.092;11.484;2023-01-29T06:23:35;96049.91;;;-0.23;100.00
10093;BME280;5085;48.092;11.484;2023-01-29T06:26:03;96047.47;;;-0.25;100.00
10093;BME280;5085;48.092;11.484;2023-01-29T06:28:30;96052.75;;;-0.25;100.00
10093;BME280;5085;48.092;11.484;2023-01-29T06:30:57;96056.22;;;-0.24;100.00
10093;BME280;5085;48.092;11.484;2023-01-29T06:33:24;96056.22;;;-0.24;100.00
10093;BME280;5085;48.092;11.484;2023-01-29T06:36:01;96056.84;;;-0.22;100.00
10093;BME280;5085;48.092;11.484;2023-01-29T06:38:28;96062.94;;;-0.22;100.00
10093;BME280;5085;48.092;11.484;2023-01-29T06:40:55;96057.47;;;-0.20;100.00
10093;BME280;5085;48.092;11.484;2023-01-29T06:43:22;96067.06;;;-0.19;100.00
10093;BME280;5085;48.092;11.484;2023-01-29T06:45:53;96065.41;;;-0.20;100.00
10093;BME280;5085;48.092;11.484;2023-01-29T06:48:20;96065.41;;;-0.20;100.00
10093;BME280;5085;48.092;11.484;2023-01-29T06:50:47;96061.97;;;-0.21;100.00
10093;BME280;5085;48.092;11.484;2023-01-29T06:53:14;96067.06;;;-0.19;100.00
10093;BME280;5085;48.092;11.484;2023-01-29T06:55:41;96068.22;;;-0.22;100.00
10093;BME280;5085;48.092;11.484;2023-01-29T06:58:09;96068.22;;;-0.22;100.00
10093;BME280;5085;48.092;11.484;2023-01-29T07:00:35;96066.78;;;-0.24;100.00
10093;BME280;5085;48.092;11.484;2023-01-29T07:03:02;96064.97;;;-0.24;100.00
10093;BME280;5085;48.092;11.484;2023-01-29T07:05:29;96061.31;;;-0.23;100.00
10093;BME280;5085;48.092;11.484;2023-01-29T07:07:55;96060.94;;;-0.20;100.00
10093;BME280;5085;48.092;11.484;2023-01-29T07:10:21;96060.59;;;-0.17;100.00
10093;BME280;5085;48.092;11.484;2023-01-29T07:12:47;96063.84;;;-0.15;100.00
10093;BME280;5085;48.092;11.484;2023-01-29T07:15:13;96063.66;;;-0.13;100.00
10093;BME280;5085;48.092;11.484;2023-01-29T07:17:40;96062.47;;;-0.11;100.00
10093;BME280;5085;48.092;11.484;2023-01-29T07:20:06;96059.03;;;-0.11;100.00
10093;BME280;5085;48.092;11.484;2023-01-29T07:22:32;96055.16;;;-0.09;100.00
10093;BME280;5085;48.092;11.484;2023-01-29T07:24:58;96041.13;;;-0.09;100.00
10093;BME280;5085;48.092;11.484;2023-01-29T07:27:24;96043.59;;;-0.08;100.00
10093;BME280;5085;48.092;11.484;2023-01-29T07:29:50;96033.00;;;-0.08;100.00
10093;BME280;5085;48.092;11.484;2023-01-29T07:32:16;96047.22;;;-0.09;100.00
10093;BME280;5085;48.092;11.484;2023-01-29T07:34:42;96047.22;;;-0.09;100.00
10093;BME280;5085;48.092;11.484;2023-01-29T07:37:08;96036.47;;;-0.07;100.00
10093;BME280;5085;48.092;11.484;2023-01-29T07:39:35;96032.81;;;-0.06;100.00
10093;BME280;5085;48.092;11.484;2023-01-29T07:42:01;96035.47;;;-0.06;100.00
10093;BME280;5085;48.092;11.484;2023-01-29T07:44:27;96038.09;;;-0.06;100.00
10093;BME280;5085;48.092;11.484;2023-01-29T07:46:53;96040.56;;;-0.05;100.00
10093;BME280;5085;48.092;11.484;2023-01-29T07:49:20;96037.53;;;-0.02;100.00
10093;BME280;5085;48.092;11.484;2023-01-29T07:51:46;96031.88;;;0.02;100.00
10093;BME280;5085;48.092;11.484;2023-01-29T07:54:12;96030.69;;;0.04;100.00
10093;BME280;5085;48.092;11.484;2023-01-29T07:56:38;96030.31;;;0.07;100.00
10093;BME280;5085;48.092;11.484;2023-01-29T07:59:04;96041.72;;;0.08;100.00
10093;BME280;5085;48.092;11.484;2023-01-29T08:01:30;96041.56;;;0.09;100.00
10093;BME280;5085;48.092;11.484;2023-01-29T08:03:56;96027.50;;;0.09;100.00
10093;BME280;5085;48.092;11.484;2023-01-29T08:06:22;96031.78;;;0.10;100.00
10093;BME280;5085;48.092;11.484;2023-01-29T08:08:48;96033.22;;;0.12;100.00
10093;BME280;5085;48.092;11.484;2023-01-29T08:11:14;96028.75;;;0.13;100.00
10093;BME280;5085;48.092;11.484;2023-01-29T08:13:40;96027.75;;;0.14;100.00
10093;BME280;5085;48.092;11.484;2023-01-29T08:16:06;96021.81;;;0.12;100.00
10093;BME280;5085;48.092;11.484;2023-01-29T08:18:32;96037.06;;;0.10;100.00
10093;BME280;5085;48.092;11.484;2023-01-29T08:21:01;96028.13;;;0.11;100.00
10093;BME280;5085;48.092;11.484;2023-01-29T08:23:28;96025.91;;;0.14;100.00
10093;BME280;5085;48.092;11.484;2023-01-29T08:25:54;96028.44;;;0.22;100.00
10093;BME280;5085;48.092;11.484;2023-01-29T08:28:20;96023.22;;;0.29;100.00
10093;BME280;5085;48.092;11.484;2023-01-29T08:30:46;96031.84;;;0.38;100.00
10093;BME280;5085;48.092;11.484;2023-01-29T08:33:12;96043.72;;;0.42;100.00
10093;BME280;5085;48.092;11.484;2023-01-29T08:35:38;96037.69;;;0.48;100.00
10093;BME280;5085;48.092;11.484;2023-01-29T08:38:05;96034.66;;;0.51;100.00
10093;BME280;5085;48.092;11.484;2023-01-29T08:40:33;96046.69;;;0.54;100.00
10093;BME280;5085;48.092;11.484;2023-01-29T08:43:00;96051.63;;;0.57;100.00
10093;BME280;5085;48.092;11.484;2023-01-29T08:45:27;96046.13;;;0.58;100.00
10093;BME280;5085;48.092;11.484;2023-01-29T08:47:53;96055.53;;;0.61;100.00
10093;BME280;5085;48.092;11.484;2023-01-29T08:50:19;96064.09;;;0.63;100.00
10093;BME280;5085;48.092;11.484;2023-01-29T08:52:45;96062.72;;;0.67;100.00
10093;BME280;5085;48.092;11.484;2023-01-29T08:55:11;96070.09;;;0.71;100.00
10093;BME280;5085;48.092;11.484;2023-01-29T08:57:38;96074.81;;;0.76;100.00
10093;BME280;5085;48.092;11.484;2023-01-29T09:00:05;96072.00;;;0.78;100.00
10093;BME280;5085;48.092;11.484;2023-01-29T09:02:32;96065.88;;;0.77;100.00
10093;BME280;5085;48.092;11.484;2023-01-29T09:04:58;96077.09;;;0.79;100.00
10093;BME280;5085;48.092;11.484;2023-01-29T09:07:24;96075.09;;;0.81;100.00
10093;BME280;5085;48.092;11.484;2023-01-29T09:09:50;96082.66;;;0.84;100.00
10093;BME280;5085;48.092;11.484;2023-01-29T09:12:16;96080.00;;;0.84;100.00
10093;BME280;5085;48.092;11.484;2023-01-29T09:14:42;96088.22;;;0.89;100.00
10093;BME280;5085;48.092;11.484;2023-01-29T09:17:08;96093.31;;;0.91;100.00
10093;BME280;5085;48.092;11.484;2023-01-29T09:19:34;96099.06;;;0.94;100.00
10093;BME280;5085;48.092;11.484;2023-01-29T09:22:00;96101.75;;;1.01;100.00
10093;BME280;5085;48.092;11.484;2023-01-29T09:24:26;96104.84;;;1.05;100.00
10093;BME280;5085;48.092;11.484;2023-01-29T09:26:52;96107.50;;;1.05;100.00
10093;BME280;5085;48.092;11.484;2023-01-29T09:29:18;96112.25;;;1.09;100.00
10093;BME280;5085;48.092;11.484;2023-01-29T09:31:44;96112.06;;;1.11;100.00
10093;BME280;5085;48.092;11.484;2023-01-29T09:34:10;96120.44;;;1.14;100.00
10093;BME280;5085;48.092;11.484;2023-01-29T09:36:36;96112.47;;;1.14;100.00
10093;BME280;5085;48.092;11.484;2023-01-29T09:39:02;96117.38;;;1.11;100.00
10093;BME280;5085;48.092;11.484;2023-01-29T09:44:37;96113.19;;;1.02;100.00
10093;BME280;5085;48.092;11.484;2023-01-29T09:47:13;96122.81;;;1.03;100.00
10093;BME280;5085;48.092;11.484;2023-01-29T09:49:48;96126.06;;;1.05;100.00
10093;BME280;5085;48.092;11.484;2023-01-29T09:52:19;96133.66;;;1.08;100.00
10093;BME280;5085;48.092;11.484;2023-01-29T09:54:59;96133.66;;;1.08;100.00
10093;BME280;5085;48.092;11.484;2023-01-29T09:57:36;96127.13;;;1.10;100.00
10093;BME280;5085;48.092;11.484;2023-01-29T10:00:05;96123.88;;;1.08;100.00
10093;BME280;5085;48.092;11.484;2023-01-29T10:10:50;96115.84;;;1.02;100.00
10093;BME280;5085;48.092;11.484;2023-01-29T10:13:43;96114.44;;;1.06;100.00
10093;BME280;5085;48.092;11.484;2023-01-29T10:16:44;96120.63;;;1.13;100.00
10093;BME280;5085;48.092;11.484;2023-01-29T10:22:12;96111.41;;;1.30;100.00
10093;BME280;5085;48.092;11.484;2023-01-29T10:24:59;96095.53;;;1.37;100.00
10093;BME280;5085;48.092;11.484;2023-01-29T10:27:32;96101.91;;;1.42;100.00
10093;BME280;5085;48.092;11.484;2023-01-29T10:30:01;96106.16;;;1.37;100.00
10093;BME280;5085;48.092;11.484;2023-01-29T10:32:29;96105.34;;;1.36;100.00
10093;BME280;5085;48.092;11.484;2023-01-29T10:35:26;96099.00;;;1.37;100.00
10093;BME280;5085;48.092;11.484;2023-01-29T10:37:51;96094.72;;;1.36;100.00
10093;BME280;5085;48.092;11.484;2023-01-29T10:40:27;96095.09;;;1.33;100.00
10093;BME280;5085;48.092;11.484;2023-01-29T10:43:05;96101.00;;;1.29;100.00
10093;BME280;5085;48.092;11.484;2023-01-29T10:45:48;96089.72;;;1.27;100.00
10093;BME280;5085;48.092;11.484;2023-01-29T10:54:06;96091.34;;;0.99;100.00
10093;BME280;5085;48.092;11.484;2023-01-29T10:56:53;96089.06;;;0.96;100.00
10093;BME280;5085;48.092;11.484;2023-01-29T11:02:22;96092.81;;;1.02;100.00
10093;BME280;5085;48.092;11.484;2023-01-29T11:04:48;96085.69;;;1.03;100.00
10093;BME280;5085;48.092;11.484;2023-01-29T11:07:17;96080.38;;;1.03;100.00
10093;BME280;5085;48.092;11.484;2023-01-29T11:09:55;96086.06;;;0.99;100.00
10093;BME280;5085;48.092;11.484;2023-01-29T11:12:26;96074.63;;;0.99;100.00
10093;BME280;5085;48.092;11.484;2023-01-29T11:15:15;96076.91;;;1.02;100.00
10093;BME280;5085;48.092;11.484;2023-01-29T11:18:05;96084.28;;;1.07;100.00
10093;BME280;5085;48.092;11.484;2023-01-29T11:20:33;96076.75;;;1.10;100.00
10093;BME280;5085;48.092;11.484;2023-01-29T11:22:59;96066.41;;;1.15;100.00
10093;BME280;5085;48.092;11.484;2023-01-29T11:25:25;96073.13;;;1.18;100.00
10093;BME280;5085;48.092;11.484;2023-01-29T11:27:55;96075.63;;;1.19;100.00
10093;BME280;5085;48.092;11.484;2023-01-29T11:35:40;96061.78;;;1.24;100.00
10093;BME280;5085;48.092;11.484;2023-01-29T11:40:37;96058.09;;;1.25;100.00
10093;BME280;5085;48.092;11.484;2023-01-29T11:45:55;96057.28;;;1.24;100.00
10093;BME280;5085;48.092;11.484;2023-01-29T11:48:29;96059.13;;;1.24;100.00
10093;BME280;5085;48.092;11.484;2023-01-29T11:50:58;96056.19;;;1.19;100.00
10093;BME280;5085;48.092;11.484;2023-01-29T11:53:48;96044.97;;;1.17;100.00
10093;BME280;5085;48.092;11.484;2023-01-29T11:56:21;96031.94;;;1.15;100.00
10093;BME280;5085;48.092;11.484;2023-01-29T11:58:48;96015.19;;;1.15;100.00
10093;BME280;5085;48.092;11.484;2023-01-29T12:01:17;95999.28;;;1.15;100.00
10093;BME280;5085;48.092;11.484;2023-01-29T12:03:50;95988.47;;;1.16;100.00
10093;BME280;5085;48.092;11.484;2023-01-29T12:06:23;95973.00;;;1.20;100.00
10093;BME280;5085;48.092;11.484;2023-01-29T12:08:57;95968.13;;;1.23;100.00
10093;BME280;5085;48.092;11.484;2023-01-29T12:11:28;95967.72;;;1.27;100.00
10093;BME280;5085;48.092;11.484;2023-01-29T12:13:57;95968.56;;;1.34;100.00
10093;BME280;5085;48.092;11.484;2023-01-29T12:16:37;95973.09;;;1.40;100.00
10093;BME280;5085;48.092;11.484;2023-01-29T12:19:26;95973.50;;;1.43;100.00
10093;BME280;5085;48.092;11.484;2023-01-29T12:22:00;95972.50;;;1.44;100.00
10093;BME280;5085;48.092;11.484;2023-01-29T12:24:36;95977.63;;;1.46;100.00
10093;BME280;5085;48.092;11.484;2023-01-29T12:27:13;95976.16;;;1.43;100.00
10093;BME280;5085;48.092;11.484;2023-01-29T12:29:50;95980.06;;;1.47;100.00
10093;BME280;5085;48.092;11.484;2023-01-29T12:32:38;95979.47;;;1.45;100.00
10093;BME280;5085;48.092;11.484;2023-01-29T12:37:51;95997.41;;;1.43;100.00
10093;BME280;5085;48.092;11.484;2023-01-29T12:40:20;95994.75;;;1.43;100.00
10093;BME280;5085;48.092;11.484;2023-01-29T12:42:54;95987.00;;;1.42;100.00
10093;BME280;5085;48.092;11.484;2023-01-29T12:45:22;95980.22;;;1.39;100.00
10093;BME280;5085;48.092;11.484;2023-01-29T12:47:59;95965.88;;;1.68;100.00
10093;BME280;5085;48.092;11.484;2023-01-29T12:50:34;95959.66;;;2.03;100.00
10093;BME280;5085;48.092;11.484;2023-01-29T12:56:25;95960.66;;;1.88;100.00
10093;BME280;5085;48.092;11.484;2023-01-29T12:58:54;95968.56;;;1.75;100.00
10093;BME280;5085;48.092;11.484;2023-01-29T13:01:35;95951.56;;;1.63;100.00
10093;BME280;5085;48.092;11.484;2023-01-29T13:04:18;95950.28;;;1.52;100.00
10093;BME280;5085;48.092;11.484;2023-01-29T13:06:53;95944.53;;;1.42;100.00
10093;BME280;5085;48.092;11.484;2023-01-29T13:09:29;95945.72;;;1.33;100.00
10093;BME280;5085;48.092;11.484;2023-01-29T13:12:06;95931.38;;;1.27;100.00
10093;BME280;5085;48.092;11.484;2023-01-29T13:19:58;95925.19;;;1.13;100.00
10093;BME280;5085;48.092;11.484;2023-01-29T13:22:33;95915.81;;;1.11;100.00
10093;BME280;5085;48.092;11.484;2023-01-29T13:25:02;95911.34;;;1.11;100.00
10093;BME280;5085;48.092;11.484;2023-01-29T13:27:30;95914.16;;;1.10;100.00
10093;BME280;5085;48.092;11.484;2023-01-29T13:29:58;95914.56;;;1.07;100.00
10093;BME280;5085;48.092;11.484;2023-01-29T13:32:29;95911.06;;;1.06;100.00
10093;BME280;5085;48.092;11.484;2023-01-29T13:35:05;95903.97;;;1.07;100.00
10093;BME280;5085;48.092;11.484;2023-01-29T13:37:47;95903.75;;;1.08;100.00
10093;BME280;5085;48.092;11.484;2023-01-29T13:40:21;95905.59;;;1.08;100.00
10093;BME280;5085;48.092;11.484;2023-01-29T13:42:49;95909.28;;;1.07;100.00
10093;BME280;5085;48.092;11.484;2023-01-29T13:45:20;95905.97;;;1.05;100.00
10093;BME280;5085;48.092;11.484;2023-01-29T13:47:49;95906.19;;;1.03;100.00
10093;BME280;5085;48.092;11.484;2023-01-29T13:50:27;95899.44;;;1.00;100.00
10093;BME280;5085;48.092;11.484;2023-01-29T13:52:57;95892.06;;;0.96;100.00
10093;BME280;5085;48.092;11.484;2023-01-29T13:55:45;95890.59;;;0.93;100.00
10093;BME280;5085;48.092;11.484;2023-01-29T13:58:17;95895.50;;;0.90;100.00
10093;BME280;5085;48.092;11.484;2023-01-29T14:01:01;95896.91;;;0.86;100.00
10093;BME280;5085;48.092;11.484;2023-01-29T14:13:49;95877.78;;;0.90;100.00
10093;BME280;5085;48.092;11.484;2023-01-29T14:23:50;95874.03;;;0.85;100.00
10093;BME280;5085;48.092;11.484;2023-01-29T14:26:31;95869.75;;;0.84;100.00
10093;BME280;5085;48.092;11.484;2023-01-29T14:29:27;95874.69;;;0.87;100.00
10093;BME280;5085;48.092;11.484;2023-01-29T14:31:57;95871.59;;;0.83;100.00
10093;BME280;5085;48.092;11.484;2023-01-29T14:34:34;95877.09;;;0.82;100.00
10093;BME280;5085;48.092;11.484;2023-01-29T14:39:46;95890.78;;;0.85;100.00
10093;BME280;5085;48.092;11.484;2023-01-29T14:42:34;95888.31;;;0.84;100.00
10093;BME280;5085;48.092;11.484;2023-01-29T14:55:38;95906.19;;;0.68;100.00
10093;BME280;5085;48.092;11.484;2023-01-29T14:58:11;95908.19;;;0.66;100.00
10093;BME280;5085;48.092;11.484;2023-01-29T15:00:42;95893.69;;;0.62;100.00
10093;BME280;5085;48.092;11.484;2023-01-29T15:03:19;95889.78;;;0.58;100.00
10093;BME280;5085;48.092;11.484;2023-01-29T15:05:47;95884.50;;;0.58;100.00
10093;BME280;5085;48.092;11.484;2023-01-29T15:10:47;95888.78;;;0.59;100.00
10093;BME280;5085;48.092;11.484;2023-01-29T15:13:20;95885.50;;;0.57;100.00
10093;BME280;5085;48.092;11.484;2023-01-29T15:15:55;95890.00;;;0.57;100.00
10093;BME280;5085;48.092;11.484;2023-01-29T15:18:30;95880.72;;;0.74;100.00
10093;BME280;5085;48.092;11.484;2023-01-29T15:21:12;95885.31;;;0.93;100.00
10093;BME280;5085;48.092;11.484;2023-01-29T15:23:38;95881.63;;;0.88;100.00